KLVS

Las Vegas Municipal Airport

Las Vegas, New Mexico, USA
METAR KLVS 150253Z AUTO 12011KT 10SM FEW110 20/11 A3021 RMK AO2 SLP121 T02000106 53014
Observed Flight Rules
Aug-15 @ 02:53 UTC (43 minutes ago) Visual Flight Rules
Wind Visibility Clouds
120° at 11 knots 10 miles
  • Few at 11,000' AGL
Temperatures Readings
Current 20°C / 68°F
Dewpoint 11°C / 52°F
Humidity 56%
Altimeter 30.21" Hg
Pressure 1012.1 hPa
Elevation 2091
METAR KLVS 150253Z AUTO 12011KT 10SM FEW110 20/11 A3021 RMK AO2 SLP121 T02000106 53014
Observed Flight Rules
Aug-15 @ 02:53 UTC
(43 minutes ago)
VFR
Wind Visibility
120° at 11 knots 10 miles
Clouds
  • Few at 11,000' AGL
Temperature Dewpoint
20°C / 68°F 11°C / 52°F
Humidity Altimeter Pressure
56% 30.21" Hg 1012.1 hPa